Data for 06/05/2018

Time Sea-Level Adjusted Pressure Absolute Pressure Temperature Relative Humidity Dew Point   
(mb) (inHg) (mb) (inHg) (C) (F) (%) (C) (F)
00:05 1015 29.97 844 24.92 15.2 59.3 57 6.7 44
00:10 1015 29.97 844 24.92 15.1 59.1 57 6.6 44
00:15 1015 29.97 844 24.92 15 59 58 6.8 44.2
00:20 1015 29.97 844 24.92 14.8 58.7 59 6.9 44.3
00:25 1015 29.97 844 24.92 14.6 58.2 60 6.9 44.4
00:30 1015 29.97 844 24.92 14.4 57.9 60 6.8 44.2
00:35 1015 29.97 844 24.92 14.3 57.7 60 6.7 44.1
00:40 1015 29.97 844 24.92 14.2 57.5 60 6.6 43.9
00:45 1015 29.97 844 24.92 14.2 57.5 60 6.6 43.9
00:50 1015 29.97 844 24.92 14.2 57.5 60 6.5 43.8
00:55 1015 29.97 844 24.92 14.1 57.5 60 6.4 43.6
01:00 1015 29.97 844 24.92 14.1 57.3 60 6.5 43.6
01:05 1015 29.97 845 24.95 14 57.3 60 6.4 43.5
01:10 1015 29.97 845 24.95 14 57.2 60 6.4 43.6
01:15 1015 29.97 845 24.95 13.9 57 60 6.4 43.5
01:20 1015 29.97 845 24.95 13.9 56.9 61 6.5 43.8
01:25 1015 29.97 845 24.95 13.7 56.6 61 6.4 43.5
01:30 1015 29.97 845 24.95 13.5 56.2 62 6.4 43.5
01:35 1015 29.97 845 24.95 13.3 55.9 63 6.4 43.4
01:40 1016 30 845 24.95 13.3 55.9 62 6.3 43.4
01:45 1016 30 845 24.95 13.3 55.9 63 6.4 43.6
01:50 1016 30 845 24.95 13.2 55.8 63 6.4 43.4
01:55 1016 30 845 24.95 13 55.3 64 6.3 43.4
02:00 1016 30 845 24.95 12.9 55.1 64 6.3 43.3
02:05 1016 30 845 24.95 12.8 55.1 65 6.4 43.5
02:10 1016 30 845 24.95 12.7 54.8 65 6.4 43.4
02:15 1016 30 845 24.95 12.7 54.9 64 6.2 43.1
02:20 1016 30 845 24.95 12.8 55.1 64 6.4 43.4
02:25 1016 30 845 24.95 12.8 55.1 64 6.2 43.2
02:30 1016 30 845 24.95 12.9 55.3 63 6.2 43.1
02:35 1016 30 845 24.95 13 55.3 63 6.2 43.1
02:40 1016 30 845 24.95 12.8 55.1 63 6 42.9
02:45 1016 30 845 24.95 12.7 54.8 63 6 42.8
02:50 1016 30 845 24.95 12.6 54.7 64 5.9 42.7
02:55 1016 30 845 24.95 12.6 54.6 65 6.1 43
03:00 1016 30 845 24.95 12.1 53.8 67 6.3 43.3
03:05 1016 30 845 24.95 11.8 53.2 68 6.1 42.9
03:10 1016 30 845 24.95 11.8 53.2 68 6 42.9
03:15 1016 30 845 24.95 11.7 53.1 68 6.1 43
03:20 1016 30 845 24.95 11.5 52.7 68 6 42.7
03:25 1016 30 845 24.95 11.6 52.8 68 5.9 42.7
03:30 1016 30 845 24.95 11.7 53.1 67 5.8 42.4
03:35 1016 30 845 24.95 11.8 53.3 67 6 42.8
03:40 1016 30 845 24.95 11.6 52.8 69 6.1 43
03:45 1016 30 845 24.95 11.2 52.1 70 6 42.8
03:50 1016 30 845 24.95 11.1 52 69 5.8 42.4
03:55 1016 30 845 24.95 11.3 52.4 68 5.7 42.2
04:00 1016 30 845 24.95 11.5 52.7 68 5.8 42.4
04:05 1016 30 845 24.95 11.5 52.7 67 5.7 42.2
04:10 1016 30 845 24.95 11.5 52.7 68 5.9 42.6
04:15 1016 30 845 24.95 11.2 52.1 70 5.9 42.6
04:20 1016 30 845 24.95 10.9 51.6 70 5.7 42.3
04:25 1016 30 845 24.95 10.7 51.3 71 5.7 42.2
04:30 1016 30 845 24.95 10.6 51.1 71 5.7 42.2
04:35 1016 30 845 24.95 10.4 50.8 72 5.7 42.2
04:40 1016 30 845 24.95 10.2 50.3 74 5.7 42.3
04:45 1016 30 845 24.95 9.9 49.9 74 5.5 41.8
04:50 1016 30 845 24.95 10 49.9 73 5.4 41.7
04:55 1016 30 845 24.95 10 50 72 5.2 41.4
05:00 1016 30 845 24.95 10.2 50.4 72 5.4 41.7
05:05 1016 30 845 24.95 10.1 50.3 72 5.3 41.5
05:10 1016 30 845 24.95 10.3 50.6 71 5.3 41.6
05:15 1016 30 845 24.95 10.3 50.5 71 5.3 41.5
05:20 1016 30 845 24.95 10.4 50.7 71 5.3 41.6
05:25 1016 30 845 24.95 10.3 50.5 72 5.4 41.8
05:30 1016 30 845 24.95 9.9 49.8 74 5.4 41.8
05:35 1016 30 845 24.95 9.6 49.2 75 5.4 41.7
05:40 1016 30 846 24.98 9.1 48.4 77 5.3 41.6
05:45 1016 30 846 24.98 9 48.1 77 5.2 41.4
05:50 1016 30 846 24.98 8.9 48.1 77 5.1 41.3
05:55 1016 30 846 24.98 9.1 48.4 76 5.1 41.2
06:00 1016 30 846 24.98 9.2 48.6 76 5.2 41.4
06:05 1016 30 846 24.98 9.1 48.3 76 5.2 41.3
06:10 1017 30.03 846 24.98 9.2 48.6 76 5.2 41.3
06:15 1016 30 846 24.98 9.3 48.7 75 5 41.1
06:20 1016 30 846 24.98 9.5 49.1 75 5.2 41.4
06:25 1017 30.03 846 24.98 9.5 49.1 74 5.1 41.2
06:30 1017 30.03 846 24.98 9.8 49.6 73 5.3 41.5
06:35 1016 30 846 24.98 9.8 49.6 73 5.2 41.3
06:40 1016 30 846 24.98 9.9 49.8 73 5.2 41.4
06:45 1017 30.03 846 24.98 10.1 50.1 72 5.3 41.5
06:50 1017 30.03 846 24.98 10 50 73 5.5 41.9
06:55 1017 30.03 846 24.98 10.1 50.2 73 5.6 42
07:00 1017 30.03 846 24.98 10.3 50.5 73 5.6 42
07:05 1017 30.03 846 24.98 10.4 50.8 72 5.6 42.1
07:10 1017 30.03 846 24.98 10.7 51.3 71 5.7 42.3
07:15 1017 30.03 846 24.98 11 51.7 72 6.1 42.9
07:20 1017 30.03 846 24.98 10.8 51.5 73 6.1 43.1
07:25 1017 30.03 846 24.98 10.7 51.2 73 6.1 43
07:30 1017 30.03 846 24.98 10.4 50.7 75 6.1 43
07:35 1016 30 846 24.98 10.5 50.9 74 6 42.8
07:40 1016 30 845 24.95 10.8 51.5 72 6 42.8
07:45 1016 30 845 24.95 11.1 52.1 72 6.3 43.3
07:50 1016 30 845 24.95 11.3 52.4 72 6.5 43.7
07:55 1016 30 845 24.95 11.9 53.3 69 6.4 43.4
08:00 1016 30 846 24.98 12.5 54.5 66 6.3 43.4
08:05 1016 30 846 24.98 13.1 55.6 62 6 42.7
08:10 1016 30 845 24.95 14.1 57.4 57 5.7 42.3
08:15 1016 30 845 24.95 14.9 58.8 58 6.9 44.4
08:20 1016 30 845 24.95 14.7 58.4 60 7.1 44.7
08:25 1016 30 846 24.98 14.8 58.7 61 7.3 45.2
08:30 1016 30 846 24.98 14.4 57.9 62 7.2 45
08:35 1016 30 845 24.95 14.1 57.3 62 6.9 44.3
08:40 1016 30 845 24.95 14 57.1 63 7.1 44.8
08:45 1016 30 845 24.95 14 57.3 62 7 44.6
08:50 1016 30 845 24.95 14.2 57.6 61 6.9 44.4
08:55 1016 30 845 24.95 14.2 57.6 61 6.9 44.4
09:00 1016 30 845 24.95 14.3 57.7 61 6.8 44.3
09:05 1016 30 845 24.95 14.5 58.2 58 6.4 43.6
09:10 1015 29.97 844 24.92 14.9 58.7 56 6.2 43.1
09:15 1015 29.97 844 24.92 14.9 58.8 57 6.5 43.7
09:20 1015 29.97 844 24.92 15.1 59.1 56 6.3 43.4
09:25 1015 29.97 844 24.92 15.3 59.6 55 6.5 43.6
09:30 1014 29.94 844 24.92 15.7 60.3 54 6.6 43.8
09:35 1014 29.94 844 24.92 15.7 60.2 55 6.6 44
09:40 1015 29.97 844 24.92 15.6 60.1 55 6.7 44
09:45 1015 29.97 844 24.92 16.1 61 55 7.2 44.9
09:50 1015 29.97 844 24.92 15.9 60.6 55 7.1 44.7
09:55 1015 29.97 844 24.92 16 60.7 56 7.3 45.1
10:00 1015 29.97 844 24.92 15.9 60.6 56 7.2 44.9
10:05 1015 29.97 844 24.92 15.7 60.2 63 8.6 47.5
10:10 1015 29.97 845 24.95 14.5 58.1 63 7.6 45.6
10:15 1016 30 845 24.95 14.8 58.6 63 7.8 46.1
10:20 1016 30 845 24.95 14.3 57.8 65 8 46.4
10:25 1016 30 845 24.95 14.4 57.9 64 7.8 46
10:30 1016 30 845 24.95 14.3 57.7 64 7.5 45.6
10:35 1016 30 845 24.95 14.7 58.4 62 7.6 45.6
10:40 1016 30 845 24.95 14.7 58.4 61 7.4 45.3
10:45 1016 30 845 24.95 15 59.1 60 7.5 45.5
10:50 1016 30 845 24.95 14.9 58.9 62 7.9 46.2
10:55 1016 30 845 24.95 15.1 59.1 62 7.9 46.2
11:00 1016 30 845 24.95 14.8 58.7 62 7.7 45.8
11:05 1016 30 845 24.95 15.5 59.8 61 8 46.3
11:10 1016 30 845 24.95 15.7 60.3 59 7.9 46.2
11:15 1016 30 845 24.95 15.5 59.8 62 8.3 46.9
11:20 1016 30 845 24.95 15.3 59.5 61 7.8 46.1
11:25 1016 30 845 24.95 15.7 60.3 59 7.8 46.1
11:30 1016 30 845 24.95 16.2 61.1 57 7.8 46
11:35 1016 30 845 24.95 16.8 62.2 54 7.6 45.6
11:40 1016 30 845 24.95 17.3 63.2 52 7.6 45.7
11:45 1016 30 845 24.95 17.7 63.8 51 7.6 45.6
11:50 1016 30 845 24.95 17.6 63.7 52 7.8 46
11:55 1016 30 845 24.95 17 62.5 53 7.6 45.6
12:00 1016 30 845 24.95 17.6 63.7 53 8 46.5
12:05 1016 30 845 24.95 17.4 63.4 54 8 46.4
12:10 1016 30 845 24.95 17.2 63 54 7.9 46.1
12:15 1016 30 845 24.95 17.9 64.3 52 8.1 46.6
12:20 1016 30 845 24.95 18 64.4 52 8.2 46.7
12:25 1016 30 845 24.95 17.8 64.1 52 8.1 46.6
12:30 1016 30 846 24.98 18.6 65.6 49 7.8 46
12:35 1016 30 845 24.95 18.5 65.3 48 7.4 45.3
12:40 1016 30 845 24.95 19 66.1 47 7.5 45.6
12:45 1016 30 846 24.98 18.8 65.9 46 7.1 44.8
12:50 1016 30 846 24.98 19.9 67.8 46 8 46.5
12:55 1016 30 846 24.98 19.8 67.6 45 7.7 45.9
13:00 1016 30 845 24.95 19.1 66.4 48 7.9 46.2
13:05 1016 30 845 24.95 19.1 66.4 48 8.1 46.5
13:10 1016 30 845 24.95 18.2 64.7 50 7.6 45.8
13:15 1016 30 845 24.95 18.8 65.8 47 7.3 45.2
13:20 1016 30 845 24.95 18.8 65.8 50 8.4 47
13:25 1016 30 845 24.95 19.2 66.5 44 6.8 44.3
13:30 1016 30 845 24.95 19.5 67.1 45 7.2 45
13:35 1016 30 845 24.95 19.9 67.8 43 7.2 45
13:40 1016 30 845 24.95 20.4 68.8 44 8 46.3
13:45 1016 30 845 24.95 20.7 69.2 43 7.8 46
13:50 1016 30 845 24.95 21.2 70.1 42 8 46.3
13:55 1016 30 845 24.95 21 69.8 41 7.3 45.2
14:00 1016 30 845 24.95 20.9 69.6 46 9.1 48.4
14:05 1016 30 845 24.95 20.7 69.3 42 7.6 45.7
14:10 1016 30 845 24.95 20.7 69.2 43 8 46.4
14:15 1016 30 845 24.95 20.6 69.1 43 7.7 45.9
14:20 1016 30 845 24.95 20.2 68.3 46 8.4 47.2
14:25 1016 30 845 24.95 20.4 68.7 42 7.1 44.7
14:30 1016 30 845 24.95 21.5 70.7 39 7 44.7
14:35 1016 30 845 24.95 21.4 70.5 41 7.7 45.9
14:40 1016 30 845 24.95 20.7 69.3 41 7.1 44.8
14:45 1016 30 845 24.95 21.6 70.9 38 6.8 44.2
14:50 1016 30 845 24.95 21 69.7 43 8.1 46.5
14:55 1016 30 845 24.95 21 69.7 42 7.9 46.1
15:00 1016 30 845 24.95 20.2 68.4 45 8 46.3
15:05 1016 30 845 24.95 20.5 68.8 42 7.2 45
15:10 1016 30 845 24.95 21 69.7 42 7.6 45.7
15:15 1016 30 845 24.95 21.3 70.4 40 7.5 45.5
15:20 1016 30 845 24.95 21.2 70.2 38 6.5 43.7
15:25 1016 30 845 24.95 21 69.8 38 6.5 43.7
15:30 1016 30 845 24.95 21.2 70.2 37 6.2 43.1
15:35 1016 30 845 24.95 21.4 70.4 38 6.5 43.7
15:40 1016 30 845 24.95 21.2 70.1 36 5.5 41.9
15:45 1016 30 845 24.95 21.4 70.6 37 6.2 43.2
15:50 1016 30 845 24.95 22.4 72.2 34 5.8 42.4
15:55 1016 30 845 24.95 23 73.3 34 6.4 43.5
16:00 1016 30 845 24.95 23 73.4 33 6.2 43.2
16:05 1016 30 845 24.95 23.2 73.7 33 6.4 43.5
16:10 1015 29.97 845 24.95 22.6 72.7 34 6.3 43.4
16:15 1016 30 845 24.95 22.8 73 33 5.7 42.2
16:20 1016 30 845 24.95 23.2 73.8 32 5.7 42.3
16:25 1016 30 845 24.95 23.5 74.3 33 6.3 43.3
16:30 1016 30 845 24.95 24 75.2 30 5.7 42.3
16:35 1016 30 845 24.95 24.3 75.7 30 5.8 42.5
16:40 1016 30 845 24.95 24 75.3 30 5.6 42.1
16:45 1016 30 845 24.95 22.9 73.3 33 6.1 43
16:50 1016 30 845 24.95 23.3 73.9 31 5.5 42
16:55 1016 30 845 24.95 24.1 75.4 30 5.8 42.4
17:00 1016 30 845 24.95 23.8 74.8 31 5.9 42.6
17:05 1015 29.97 845 24.95 23.5 74.4 32 5.9 42.6
17:10 1016 30 845 24.95 23.3 74 31 5.5 41.9
17:15 1016 30 845 24.95 23.7 74.6 30 5.5 41.9
17:20 1015 29.97 845 24.95 23.8 74.9 31 5.7 42.2
17:25 1015 29.97 845 24.95 24 75.3 31 5.9 42.6
17:30 1015 29.97 845 24.95 23.1 73.5 32 5.8 42.5
17:35 1015 29.97 845 24.95 22.8 73 32 5.4 41.7
17:40 1015 29.97 845 24.95 22.7 72.8 33 5.6 42.1
17:45 1015 29.97 845 24.95 22.3 72.1 33 5.5 41.9
17:50 1015 29.97 845 24.95 22.3 72.1 32 5 40.9
17:55 1015 29.97 845 24.95 22.7 72.9 31 5 41.1
18:00 1015 29.97 845 24.95 22.6 72.6 32 5.4 41.7
18:05 1015 29.97 845 24.95 22.6 72.7 31 5 41
18:10 1015 29.97 845 24.95 22.1 71.8 32 4.8 40.6
18:15 1015 29.97 845 24.95 22.5 72.5 31 4.6 40.2
18:20 1015 29.97 845 24.95 22.8 73 31 4.8 40.6
18:25 1015 29.97 845 24.95 22.8 73 30 4.6 40.3
18:30 1015 29.97 845 24.95 23.1 73.7 30 4.8 40.6
18:35 1015 29.97 845 24.95 23 73.5 31 5.3 41.6
18:40 1015 29.97 845 24.95 22.4 72.2 32 5.2 41.4
18:45 1015 29.97 845 24.95 22.2 72 37 6.8 44.3
18:50 1015 29.97 845 24.95 21.9 71.4 41 8.2 46.7
18:55 1015 29.97 845 24.95 22.1 71.7 40 8 46.3
19:00 1015 29.97 845 24.95 21.8 71.2 41 8.3 46.9
19:05 1015 29.97 845 24.95 21.4 70.6 42 8.2 46.8
19:10 1015 29.97 845 24.95 21.4 70.6 41 8 46.4
19:15 1016 30 845 24.95 21.3 70.3 42 8 46.3
19:20 1016 30 845 24.95 21.1 70 43 8.2 46.8
19:25 1016 30 845 24.95 21.1 69.9 43 8.3 47
19:30 1016 30 845 24.95 21.1 70 44 8.6 47.5
19:35 1016 30 845 24.95 21.1 70 45 8.8 47.8
19:40 1016 30 845 24.95 21.1 70.1 44 8.7 47.6
19:45 1016 30 845 24.95 21.1 69.9 46 9.2 48.5
19:50 1016 30 845 24.95 20.9 69.6 48 9.7 49.5
19:55 1016 30 845 24.95 20.8 69.4 50 10 50.1
20:00 1016 30 845 24.95 20.6 69 52 10.4 50.7
20:05 1016 30 845 24.95 20.3 68.5 53 10.5 50.8
20:10 1016 30 845 24.95 20.1 68.2 54 10.6 51.1
20:15 1016 30 845 24.95 19.9 67.9 55 10.6 51.1
20:20 1016 30 845 24.95 19.7 67.5 55 10.6 51
20:25 1016 30 845 24.95 19.5 67.1 56 10.6 51.1
20:30 1016 30 845 24.95 19.4 66.9 56 10.6 51.1
20:35 1016 30 845 24.95 19.3 66.7 57 10.6 51
20:40 1016 30 845 24.95 19.1 66.4 57 10.5 51
20:45 1016 30 845 24.95 19 66.2 58 10.5 50.9
20:50 1016 30 845 24.95 18.8 65.9 58 10.5 50.9
20:55 1016 30 845 24.95 18.7 65.6 59 10.5 50.9
21:00 1016 30 845 24.95 18.5 65.3 59 10.5 51
21:05 1016 30 845 24.95 18.3 64.9 60 10.6 51
21:10 1016 30 845 24.95 18.1 64.5 61 10.6 51.1
21:15 1016 30 845 24.95 17.9 64.2 62 10.6 51.1
21:20 1016 30 845 24.95 17.7 63.8 63 10.6 51.1
21:25 1016 30 845 24.95 17.5 63.5 64 10.7 51.2
21:30 1016 30 845 24.95 17.4 63.3 65 10.9 51.6
21:35 1016 30 845 24.95 17.2 63 66 11 51.7
21:40 1016 30 846 24.98 17 62.7 67 11 51.8
21:45 1016 30 846 24.98 16.9 62.4 68 11 51.9
21:50 1016 30 846 24.98 16.7 62 69 11 51.8
21:55 1017 30.03 846 24.98 16.5 61.8 69 10.9 51.7
22:00 1017 30.03 846 24.98 16.5 61.6 69 10.9 51.6
22:05 1017 30.03 846 24.98 16.4 61.5 70 10.8 51.5
22:10 1017 30.03 846 24.98 16.3 61.3 70 10.9 51.6
22:15 1017 30.03 846 24.98 16.1 61 71 10.9 51.5
22:20 1017 30.03 846 24.98 16 60.7 71 10.8 51.5
22:25 1017 30.03 846 24.98 15.9 60.6 72 10.8 51.5
22:30 1017 30.03 846 24.98 15.9 60.5 72 10.8 51.5
22:35 1017 30.03 846 24.98 15.8 60.4 72 10.8 51.4
22:40 1017 30.03 846 24.98 15.8 60.4 72 10.8 51.4
22:45 1017 30.03 846 24.98 15.8 60.4 72 10.8 51.4
22:50 1017 30.03 846 24.98 15.8 60.4 72 10.8 51.5
22:55 1017 30.03 846 24.98 15.8 60.4 72 10.8 51.5
23:00 1017 30.03 846 24.98 15.7 60.3 72 10.7 51.3
23:05 1017 30.03 846 24.98 15.8 60.4 72 10.8 51.4
23:10 1017 30.03 846 24.98 15.8 60.5 72 10.8 51.5
23:15 1017 30.03 846 24.98 15.8 60.5 72 10.8 51.5
23:20 1017 30.03 846 24.98 15.8 60.4 72 10.9 51.6
23:25 1017 30.03 846 24.98 15.7 60.2 73 10.8 51.5
23:30 1017 30.03 847 25.01 15.6 60.1 73 10.8 51.5
23:35 1017 30.03 847 25.01 15.5 59.9 74 10.8 51.5
23:40 1017 30.03 847 25.01 15.4 59.6 74 10.8 51.4
23:45 1017 30.03 847 25.01 15.3 59.5 74 10.8 51.5
23:50 1017 30.03 847 25.01 15.2 59.4 75 10.8 51.4
23:55 1017 30.03 847 25.01 15.2 59.3 75 10.8 51.4
24:00 1017 30.03 847 25.01 15.1 59.2 75 10.8 51.5